Time,TemperatureF,DewpointF,PressureIn,WindDirection,WindDirectionDegrees,WindSpeedMPH,WindSpeedGustMPH,Humidity,HourlyPrecipIn,Conditions,Clouds,dailyrainin,SoftwareType,DateUTC
2013-05-25 00:01:00,65.9,47.3,30.10,South,189,2.3,2.3,51,0.00,,,0.00,WeatherDisplay:10.37,2013-05-25 05:01:00,
2013-05-25 00:06:00,65.9,47.3,30.11,NNW,347,0.0,0.0,51,0.00,,,0.00,WeatherDisplay:10.37,2013-05-25 05:06:00,
2013-05-25 00:11:00,65.9,47.3,30.11,South,184,0.0,1.0,51,0.00,,,0.00,WeatherDisplay:10.37,2013-05-25 05:11:00,
2013-05-25 00:16:00,65.8,47.2,30.10,SSW,213,1.1,0.0,51,0.00,,,0.00,WeatherDisplay:10.37,2013-05-25 05:16:00,
2013-05-25 00:21:00,65.8,47.2,30.11,SSW,206,3.5,3.5,51,0.00,,,0.00,WeatherDisplay:10.37,2013-05-25 05:21:00,
2013-05-25 00:27:00,65.8,47.2,30.11,WNW,288,2.3,2.3,51,0.00,,,0.00,WeatherDisplay:10.37,2013-05-25 05:27:00,
2013-05-25 00:32:00,65.7,47.1,30.11,WNW,286,2.3,0.0,51,0.00,,,0.00,WeatherDisplay:10.37,2013-05-25 05:32:00,
2013-05-25 00:37:00,65.7,47.1,30.12,West,268,1.1,1.1,51,0.00,,,0.00,WeatherDisplay:10.37,2013-05-25 05:37:00,
2013-05-25 00:42:00,65.7,47.1,30.12,SW,226,1.1,1.1,51,0.00,,,0.00,WeatherDisplay:10.37,2013-05-25 05:42:00,
2013-05-25 00:47:00,65.7,47.1,30.11,NNW,335,1.1,0.0,51,0.00,,,0.00,WeatherDisplay:10.37,2013-05-25 05:47:00,
2013-05-25 00:52:00,65.7,47.1,30.11,NW,318,2.0,2.0,51,0.00,,,0.00,WeatherDisplay:10.37,2013-05-25 05:52:00,
2013-05-25 00:57:00,65.6,47.0,30.11,NW,319,4.6,4.6,51,0.00,,,0.00,WeatherDisplay:10.37,2013-05-25 05:57:00,
2013-05-25 01:02:00,65.6,47.5,30.11,SSE,161,1.1,1.1,52,0.00,,,0.00,WeatherDisplay:10.37,2013-05-25 06:02:00,
2013-05-25 01:07:00,65.5,47.4,30.10,NW,312,3.5,3.5,52,0.00,,,0.00,WeatherDisplay:10.37,2013-05-25 06:07:00,
2013-05-25 01:12:00,65.5,47.4,30.10,WNW,291,2.3,2.3,52,0.00,,,0.00,WeatherDisplay:10.37,2013-05-25 06:12:00,
2013-05-25 01:17:00,65.4,47.3,30.10,WSW,238,3.5,3.5,52,0.00,,,0.00,WeatherDisplay:10.37,2013-05-25 06:17:00,
2013-05-25 01:22:00,65.3,47.7,30.10,SW,236,2.3,2.3,53,0.00,,,0.00,WeatherDisplay:10.37,2013-05-25 06:22:00,
2013-05-25 01:27:00,65.2,47.6,30.09,SW,223,3.0,3.0,53,0.00,,,0.00,WeatherDisplay:10.37,2013-05-25 06:27:00,
2013-05-25 01:32:00,65.2,47.6,30.09,NNW,335,2.3,2.3,53,0.00,,,0.00,WeatherDisplay:10.37,2013-05-25 06:32:00,
2013-05-25 01:37:00,65.1,47.5,30.09,NE,45,1.1,1.1,53,0.00,,,0.00,WeatherDisplay:10.37,2013-05-25 06:37:00,
2013-05-25 01:42:00,65.0,47.4,30.09,WSW,238,1.1,1.1,53,0.00,,,0.00,WeatherDisplay:10.37,2013-05-25 06:42:00,
2013-05-25 01:47:00,64.9,47.4,30.09,WSW,244,3.5,3.5,53,0.00,,,0.00,WeatherDisplay:10.37,2013-05-25 06:47:00,
2013-05-25 01:52:00,64.8,47.8,30.09,SSW,211,1.1,1.1,54,0.00,,,0.00,WeatherDisplay:10.37,2013-05-25 06:52:00,
2013-05-25 01:57:00,64.7,47.7,30.09,South,173,7.0,7.0,54,0.00,,,0.00,WeatherDisplay:10.37,2013-05-25 06:57:00,
2013-05-25 02:02:00,64.6,47.6,30.09,South,181,3.5,3.5,54,0.00,,,0.00,WeatherDisplay:10.37,2013-05-25 07:02:00,
2013-05-25 02:07:00,64.5,48.0,30.09,South,185,3.5,3.5,55,0.00,,,0.00,WeatherDisplay:10.37,2013-05-25 07:07:00,
2013-05-25 02:12:00,64.4,47.9,30.09,WNW,282,3.5,3.5,55,0.00,,,0.00,WeatherDisplay:10.37,2013-05-25 07:12:00,
2013-05-25 02:17:00,64.3,47.8,30.09,SSW,211,4.6,4.6,55,0.00,,,0.00,WeatherDisplay:10.37,2013-05-25 07:17:00,
2013-05-25 02:22:00,64.2,47.7,30.09,SW,217,6.9,6.9,55,0.00,,,0.00,WeatherDisplay:10.37,2013-05-25 07:22:00,
2013-05-25 02:27:00,64.1,48.1,30.09,SSW,211,5.8,5.8,56,0.00,,,0.00,WeatherDisplay:10.37,2013-05-25 07:27:00,
2013-05-25 02:32:00,64.0,48.0,30.09,WNW,296,4.6,4.6,56,0.00,,,0.00,WeatherDisplay:10.37,2013-05-25 07:32:00,
2013-05-25 02:37:00,63.9,48.4,30.09,SW,225,2.3,2.3,57,0.00,,,0.00,WeatherDisplay:10.37,2013-05-25 07:37:00,
2013-05-25 02:42:00,63.9,48.4,30.09,SSE,153,2.3,2.3,57,0.00,,,0.00,WeatherDisplay:10.37,2013-05-25 07:42:00,
2013-05-25 02:47:00,63.8,48.3,30.09,WNW,292,3.5,3.5,57,0.00,,,0.00,WeatherDisplay:10.37,2013-05-25 07:47:00,
2013-05-25 02:52:00,63.8,48.7,30.09,WSW,239,3.5,3.5,58,0.00,,,0.00,WeatherDisplay:10.37,2013-05-25 07:52:00,
2013-05-25 02:57:00,63.9,48.8,30.09,WNW,290,4.6,4.6,58,0.00,,,0.00,WeatherDisplay:10.37,2013-05-25 07:57:00,
2013-05-25 03:02:00,63.9,48.8,30.09,SSW,193,2.3,2.3,58,0.00,,,0.00,WeatherDisplay:10.37,2013-05-25 08:02:00,
2013-05-25 03:07:00,63.9,48.8,30.08,South,181,3.5,0.0,58,0.00,,,0.00,WeatherDisplay:10.37,2013-05-25 08:07:00,
2013-05-25 03:12:00,63.9,48.8,30.08,West,265,3.5,3.5,58,0.00,,,0.00,WeatherDisplay:10.37,2013-05-25 08:12:00,
2013-05-25 03:17:00,63.8,49.2,30.08,SW,233,2.3,2.3,59,0.00,,,0.00,WeatherDisplay:10.37,2013-05-25 08:17:00,
2013-05-25 03:22:00,63.7,49.1,30.08,West,268,4.6,4.6,59,0.00,,,0.00,WeatherDisplay:10.37,2013-05-25 08:22:00,
2013-05-25 03:27:00,63.8,49.6,30.08,West,272,3.5,3.5,60,0.00,,,0.00,WeatherDisplay:10.37,2013-05-25 08:27:00,
2013-05-25 03:32:00,63.8,49.6,30.08,SE,144,6.9,6.9,60,0.00,,,0.00,WeatherDisplay:10.37,2013-05-25 08:32:00,
2013-05-25 03:37:00,63.7,49.5,30.09,South,188,6.9,6.9,60,0.00,,,0.00,WeatherDisplay:10.37,2013-05-25 08:37:00,
2013-05-25 03:42:00,63.6,49.5,30.09,SSE,164,3.5,3.5,60,0.00,,,0.00,WeatherDisplay:10.37,2013-05-25 08:42:00,
2013-05-25 03:47:00,63.6,49.9,30.09,SSE,163,1.1,1.1,61,0.00,,,0.00,WeatherDisplay:10.37,2013-05-25 08:47:00,
2013-05-25 03:52:00,63.6,49.9,30.09,South,181,2.0,2.0,61,0.00,,,0.00,WeatherDisplay:10.37,2013-05-25 08:52:00,
2013-05-25 03:57:00,63.5,49.8,30.10,South,176,3.0,3.0,61,0.00,,,0.00,WeatherDisplay:10.37,2013-05-25 08:57:00,
2013-05-25 04:02:00,63.5,49.8,30.10,SSW,195,3.5,3.5,61,0.00,,,0.00,WeatherDisplay:10.37,2013-05-25 09:02:00,
2013-05-25 04:07:00,63.5,50.2,30.10,South,183,3.5,3.5,62,0.00,,,0.00,WeatherDisplay:10.37,2013-05-25 09:07:00,
2013-05-25 04:12:00,63.4,50.1,30.10,West,260,2.3,2.3,62,0.00,,,0.00,WeatherDisplay:10.37,2013-05-25 09:12:00,
2013-05-25 04:17:00,63.4,50.1,30.10,South,181,3.5,3.5,62,0.00,,,0.00,WeatherDisplay:10.37,2013-05-25 09:17:00,
2013-05-25 04:22:00,63.4,50.1,30.10,SSE,160,5.8,5.8,62,0.00,,,0.00,WeatherDisplay:10.37,2013-05-25 09:22:00,
2013-05-25 04:27:00,63.4,50.6,30.10,South,173,8.1,8.1,63,0.00,,,0.00,WeatherDisplay:10.37,2013-05-25 09:27:00,
2013-05-25 04:32:00,63.3,50.5,30.10,SE,144,3.0,3.0,63,0.00,,,0.00,WeatherDisplay:10.37,2013-05-25 09:32:00,
2013-05-25 04:37:00,63.3,50.5,30.10,South,175,3.5,3.5,63,0.00,,,0.00,WeatherDisplay:10.37,2013-05-25 09:37:00,
2013-05-25 04:42:00,63.2,50.8,30.10,South,172,3.5,3.5,64,0.00,,,0.00,WeatherDisplay:10.37,2013-05-25 09:42:00,
2013-05-25 04:47:00,63.1,50.7,30.10,SSE,163,3.5,3.5,64,0.00,,,0.00,WeatherDisplay:10.37,2013-05-25 09:47:00,
2013-05-25 04:52:00,63.0,50.6,30.09,South,177,3.5,3.5,64,0.00,,,0.00,WeatherDisplay:10.37,2013-05-25 09:52:00,
2013-05-25 04:57:00,63.0,50.6,30.09,SSE,160,3.5,3.5,64,0.00,,,0.00,WeatherDisplay:10.37,2013-05-25 09:57:00,
2013-05-25 05:02:00,63.0,51.0,30.09,SSE,163,4.0,4.0,65,0.00,,,0.00,WeatherDisplay:10.37,2013-05-25 10:02:00,
2013-05-25 05:08:00,63.0,51.0,30.09,South,173,3.5,0.0,65,0.00,,,0.00,WeatherDisplay:10.37,2013-05-25 10:08:00,
2013-05-25 05:13:00,63.0,51.0,30.09,South,184,3.5,3.5,65,0.00,,,0.00,WeatherDisplay:10.37,2013-05-25 10:13:00,
2013-05-25 05:18:00,63.1,51.1,30.09,SSW,206,6.9,6.9,65,0.00,,,0.00,WeatherDisplay:10.37,2013-05-25 10:18:00,
2013-05-25 05:23:00,63.1,51.1,30.09,South,186,5.0,5.0,65,0.00,,,0.00,WeatherDisplay:10.37,2013-05-25 10:23:00,
2013-05-25 05:28:00,63.2,51.2,30.09,South,178,4.6,4.6,65,0.00,,,0.00,WeatherDisplay:10.37,2013-05-25 10:28:00,
2013-05-25 05:33:00,63.2,51.2,30.08,SSE,156,2.0,2.0,65,0.00,CLR,,0.00,WeatherDisplay:10.37,2013-05-25 10:33:00,
2013-05-25 05:38:00,63.2,51.2,30.08,South,189,2.3,2.3,65,0.00,CLR,,0.00,WeatherDisplay:10.37,2013-05-25 10:38:00,
2013-05-25 05:43:00,63.2,51.2,30.09,South,175,3.5,3.5,65,0.00,CLR,,0.00,WeatherDisplay:10.37,2013-05-25 10:43:00,
2013-05-25 05:48:00,63.1,51.6,30.08,SSW,194,3.5,3.5,66,0.00,CLR,,0.00,WeatherDisplay:10.37,2013-05-25 10:48:00,
2013-05-25 05:53:00,63.0,51.5,30.08,South,173,3.5,3.5,66,0.00,CLR,,0.00,WeatherDisplay:10.37,2013-05-25 10:53:00,
2013-05-25 05:58:00,63.1,52.0,30.08,South,171,6.9,6.9,67,0.00,CLR,,0.00,WeatherDisplay:10.37,2013-05-25 10:58:00,
2013-05-25 06:03:00,63.1,51.6,30.08,SSE,163,3.5,3.5,66,0.00,CLR,,0.00,WeatherDisplay:10.37,2013-05-25 11:03:00,
2013-05-25 06:05:00,63.0,51.0,30.09,South,178,0.0,0.0,65,0.00,CLR,,0.00,WeatherDisplay:10.37,2013-05-25 11:05:00,
2013-05-25 06:08:00,63.1,52.0,30.08,South,174,2.3,2.3,67,0.00,CLR,,0.00,WeatherDisplay:10.37,2013-05-25 11:08:00,
2013-05-25 06:10:00,63.0,51.0,30.09,South,178,3.0,7.0,65,0.00,CLR,,0.00,WeatherDisplay:10.37,2013-05-25 11:10:00,
2013-05-25 06:13:00,63.1,52.0,30.08,South,184,2.3,2.3,67,0.00,CLR,,0.00,WeatherDisplay:10.37,2013-05-25 11:13:00,
2013-05-25 06:18:00,63.2,52.5,30.08,South,169,2.3,2.3,68,0.00,CLR,,0.00,WeatherDisplay:10.37,2013-05-25 11:18:00,
2013-05-25 06:20:00,63.1,51.1,30.09,South,180,1.0,5.0,65,0.00,CLR,,0.00,WeatherDisplay:10.37,2013-05-25 11:20:00,
2013-05-25 06:23:00,63.3,52.6,30.08,SSW,192,4.6,4.6,68,0.00,CLR,,0.00,WeatherDisplay:10.37,2013-05-25 11:23:00,
2013-05-25 06:28:00,63.3,52.6,30.08,SSE,165,4.6,4.6,68,0.00,CLR,,0.00,WeatherDisplay:10.37,2013-05-25 11:28:00,
2013-05-25 06:33:00,63.3,52.6,30.08,SSE,167,2.0,2.0,68,0.00,CLR,,0.00,WeatherDisplay:10.37,2013-05-25 11:33:00,
2013-05-25 06:38:00,63.4,52.7,30.08,SSE,164,3.5,3.5,68,0.00,CLR,,0.00,WeatherDisplay:10.37,2013-05-25 11:38:00,
2013-05-25 06:43:00,63.4,52.7,30.08,South,169,3.5,3.5,68,0.00,CLR,,0.00,WeatherDisplay:10.37,2013-05-25 11:43:00,
2013-05-25 06:48:00,63.4,52.7,30.08,East,80,2.3,2.3,68,0.00,CLR,,0.00,WeatherDisplay:10.37,2013-05-25 11:48:00,
2013-05-25 06:53:00,63.4,53.0,30.08,SSE,168,3.5,3.5,69,0.00,CLR,,0.00,WeatherDisplay:10.37,2013-05-25 11:53:00,
2013-05-25 06:58:00,63.3,53.0,30.09,South,186,3.5,3.5,69,0.00,CLR,,0.00,WeatherDisplay:10.37,2013-05-25 11:58:00,
2013-05-25 07:03:00,63.4,53.0,30.09,SE,138,6.9,6.9,69,0.00,CLR,,0.00,WeatherDisplay:10.37,2013-05-25 12:03:00,
2013-05-25 07:08:00,63.4,53.0,30.09,SSE,154,6.9,6.9,69,0.00,CLR,,0.00,WeatherDisplay:10.37,2013-05-25 12:08:00,
2013-05-25 07:13:00,63.4,53.0,30.09,SW,227,3.5,3.5,69,0.00,CLR,,0.00,WeatherDisplay:10.37,2013-05-25 12:13:00,
2013-05-25 07:18:00,63.5,53.5,30.09,SW,223,3.5,3.5,70,0.00,CLR,,0.00,WeatherDisplay:10.37,2013-05-25 12:18:00,
2013-05-25 07:23:00,63.6,53.6,30.09,NE,51,3.5,3.5,70,0.00,CLR,,0.00,WeatherDisplay:10.37,2013-05-25 12:23:00,
2013-05-25 07:28:00,63.8,54.2,30.08,South,173,3.5,3.5,71,0.00,CLR,,0.00,WeatherDisplay:10.37,2013-05-25 12:28:00,
2013-05-25 07:33:00,63.9,54.3,30.08,South,184,9.2,9.2,71,0.00,CLR,,0.00,WeatherDisplay:10.37,2013-05-25 12:33:00,
2013-05-25 07:38:00,63.9,53.9,30.08,SSE,163,3.5,3.5,70,0.00,CLR,,0.00,WeatherDisplay:10.37,2013-05-25 12:38:00,
2013-05-25 07:43:00,63.8,54.2,30.08,SE,146,4.6,4.6,71,0.00,CLR,,0.00,WeatherDisplay:10.37,2013-05-25 12:43:00,
2013-05-25 07:48:00,63.8,54.2,30.07,SSE,147,7.0,7.0,71,0.00,CLR,,0.00,WeatherDisplay:10.37,2013-05-25 12:48:00,
2013-05-25 07:53:00,63.8,54.2,30.07,SSE,155,4.6,4.6,71,0.00,CLR,,0.00,WeatherDisplay:10.37,2013-05-25 12:53:00,
2013-05-25 07:58:00,63.8,54.2,30.07,South,171,3.5,3.5,71,0.00,CLR,,0.00,WeatherDisplay:10.37,2013-05-25 12:58:00,
2013-05-25 08:03:00,63.8,54.6,30.07,South,178,3.5,3.5,72,0.00,CLR,,0.00,WeatherDisplay:10.37,2013-05-25 13:03:00,
2013-05-25 08:08:00,63.9,54.7,30.07,South,178,4.6,4.6,72,0.00,CLR,,0.00,WeatherDisplay:10.37,2013-05-25 13:08:00,
2013-05-25 08:13:00,64.1,54.9,30.06,SSW,202,6.9,6.9,72,0.00,CLR,,0.00,WeatherDisplay:10.37,2013-05-25 13:13:00,
2013-05-25 08:18:00,64.3,55.1,30.07,SSE,155,6.9,6.9,72,0.00,CLR,,0.00,WeatherDisplay:10.37,2013-05-25 13:18:00,
2013-05-25 08:23:00,64.4,55.2,30.07,South,181,5.8,5.8,72,0.00,CLR,,0.00,WeatherDisplay:10.37,2013-05-25 13:23:00,
2013-05-25 08:28:00,64.5,55.3,30.07,SSW,197,9.2,9.2,72,0.00,CLR,,0.00,WeatherDisplay:10.37,2013-05-25 13:28:00,
2013-05-25 08:33:00,64.5,55.7,30.07,WSW,250,4.0,4.0,73,0.00,CLR,,0.00,WeatherDisplay:10.37,2013-05-25 13:33:00,
2013-05-25 08:38:00,64.7,55.5,30.07,South,177,9.2,9.2,72,0.00,CLR,,0.00,WeatherDisplay:10.37,2013-05-25 13:38:00,
2013-05-25 08:43:00,64.9,56.0,30.07,East,101,5.8,5.8,73,0.00,CLR,,0.00,WeatherDisplay:10.37,2013-05-25 13:43:00,
2013-05-25 08:48:00,65.0,56.1,30.07,SSW,197,6.9,6.9,73,0.00,CLR,,0.00,WeatherDisplay:10.37,2013-05-25 13:48:00,
2013-05-25 08:53:00,65.2,56.3,30.08,South,173,3.5,3.5,73,0.00,CLR,,0.00,WeatherDisplay:10.37,2013-05-25 13:53:00,
2013-05-25 08:58:00,65.4,56.5,30.08,WSW,240,4.6,4.6,73,0.00,CLR,,0.00,WeatherDisplay:10.37,2013-05-25 13:58:00,
2013-05-25 09:03:00,65.7,56.8,30.07,South,180,3.5,3.5,73,0.00,CLR,,0.00,WeatherDisplay:10.37,2013-05-25 14:03:00,
2013-05-25 09:08:00,66.0,57.1,30.07,SSE,161,5.8,5.8,73,0.00,CLR,,0.00,WeatherDisplay:10.37,2013-05-25 14:08:00,
2013-05-25 09:13:00,66.1,57.2,30.07,South,179,3.5,3.5,73,0.00,CLR,,0.00,WeatherDisplay:10.37,2013-05-25 14:13:00,
2013-05-25 09:18:00,66.4,57.1,30.07,SSW,197,5.8,5.8,72,0.00,CLR,,0.00,WeatherDisplay:10.37,2013-05-25 14:18:00,
2013-05-25 09:23:00,66.7,57.4,30.07,South,183,3.5,3.5,72,0.00,CLR,,0.00,WeatherDisplay:10.37,2013-05-25 14:23:00,
2013-05-25 09:28:00,67.0,57.7,30.07,SSE,165,1.1,0.0,72,0.00,CLR,,0.00,WeatherDisplay:10.37,2013-05-25 14:28:00,
2013-05-25 09:33:00,67.3,57.6,30.07,SSE,161,1.1,1.1,71,0.00,CLR,,0.00,WeatherDisplay:10.37,2013-05-25 14:33:00,
2013-05-25 09:38:00,67.6,57.9,30.08,South,175,5.8,5.8,71,0.00,CLR,,0.00,WeatherDisplay:10.37,2013-05-25 14:38:00,
2013-05-25 09:43:00,67.7,58.0,30.08,SE,144,3.5,3.5,71,0.00,CLR,,0.00,WeatherDisplay:10.37,2013-05-25 14:43:00,
2013-05-25 09:48:00,68.1,57.9,30.08,SSE,149,3.5,3.5,70,0.00,CLR,,0.00,WeatherDisplay:10.37,2013-05-25 14:48:00,
2013-05-25 09:53:00,68.3,58.1,30.08,South,169,3.5,3.5,70,0.00,CLR,,0.00,WeatherDisplay:10.37,2013-05-25 14:53:00,
2013-05-25 09:58:00,68.4,58.2,30.08,South,178,4.6,4.6,70,0.00,CLR,,0.00,WeatherDisplay:10.37,2013-05-25 14:58:00,
2013-05-25 10:03:00,68.7,58.5,30.09,SSE,157,1.1,0.0,70,0.00,CLR,,0.00,WeatherDisplay:10.37,2013-05-25 15:03:00,
2013-05-25 10:08:00,69.0,58.4,30.09,WNW,284,4.6,4.6,69,0.00,CLR,,0.00,WeatherDisplay:10.37,2013-05-25 15:08:00,
2013-05-25 10:13:00,69.3,58.7,30.09,SSE,155,3.5,3.5,69,0.00,CLR,,0.00,WeatherDisplay:10.37,2013-05-25 15:13:00,
2013-05-25 10:18:00,69.6,59.0,30.09,SE,141,4.6,4.6,69,0.00,CLR,,0.00,WeatherDisplay:10.37,2013-05-25 15:18:00,
2013-05-25 10:23:00,70.0,59.0,30.09,West,270,5.8,5.8,68,0.00,CLR,,0.00,WeatherDisplay:10.37,2013-05-25 15:23:00,
2013-05-25 10:28:00,70.2,59.1,30.09,SSW,196,3.5,3.5,68,0.00,CLR,,0.00,WeatherDisplay:10.37,2013-05-25 15:28:00,
2013-05-25 10:33:00,70.1,59.0,30.09,SE,142,3.5,3.6,68,0.00,CLR,,0.00,WeatherDisplay:10.37,2013-05-25 15:33:00,
2013-05-25 10:38:00,70.0,59.4,30.09,South,178,4.6,4.6,69,0.00,CLR,,0.00,WeatherDisplay:10.37,2013-05-25 15:38:00,
2013-05-25 10:43:00,69.9,59.3,30.08,South,182,2.3,2.3,69,0.00,CLR,,0.00,WeatherDisplay:10.37,2013-05-25 15:43:00,
2013-05-25 10:48:00,70.1,59.5,30.09,South,182,2.3,2.3,69,0.00,CLR,,0.00,WeatherDisplay:10.37,2013-05-25 15:48:00,
2013-05-25 10:54:00,70.5,59.8,30.09,SSW,211,1.0,1.0,69,0.00,CLR,,0.00,WeatherDisplay:10.37,2013-05-25 15:54:00,
2013-05-25 10:59:00,70.8,59.7,30.09,SW,229,3.5,3.5,68,0.00,CLR,,0.00,WeatherDisplay:10.37,2013-05-25 15:59:00,
2013-05-25 11:04:00,71.0,59.9,30.09,South,173,5.8,5.8,68,0.00,CLR,,0.00,WeatherDisplay:10.37,2013-05-25 16:04:00,
2013-05-25 11:09:00,70.7,59.6,30.08,South,174,3.5,3.5,68,0.00,CLR,,0.00,WeatherDisplay:10.37,2013-05-25 16:09:00,
2013-05-25 11:14:00,71.1,60.4,30.09,South,178,2.3,0.0,69,0.00,CLR,,0.00,WeatherDisplay:10.37,2013-05-25 16:14:00,
2013-05-25 11:19:00,71.9,60.8,30.09,SSE,166,4.6,4.6,68,0.00,CLR,,0.00,WeatherDisplay:10.37,2013-05-25 16:19:00,
2013-05-25 11:24:00,72.4,60.8,30.09,South,172,6.9,6.9,67,0.00,CLR,,0.00,WeatherDisplay:10.37,2013-05-25 16:24:00,
2013-05-25 11:29:00,72.9,60.9,30.09,South,185,5.8,0.0,66,0.00,CLR,,0.00,WeatherDisplay:10.37,2013-05-25 16:29:00,
2013-05-25 11:34:00,73.3,60.8,30.09,WNW,286,4.0,4.0,65,0.00,CLR,,0.00,WeatherDisplay:10.37,2013-05-25 16:34:00,
2013-05-25 11:39:00,73.8,61.3,30.09,WNW,295,8.0,8.0,65,0.00,CLR,,0.00,WeatherDisplay:10.37,2013-05-25 16:39:00,
2013-05-25 11:44:00,74.0,61.5,30.09,NW,304,0.0,0.0,65,0.00,CLR,,0.00,WeatherDisplay:10.37,2013-05-25 16:44:00,
2013-05-25 11:49:00,74.8,61.4,30.09,West,278,4.0,4.0,63,0.00,CLR,,0.00,WeatherDisplay:10.37,2013-05-25 16:49:00,
2013-05-25 11:54:00,75.0,61.5,30.09,SSW,200,1.1,0.0,63,0.00,CLR,,0.00,WeatherDisplay:10.37,2013-05-25 16:54:00,
2013-05-25 11:59:00,75.2,61.7,30.09,SSE,159,6.9,6.9,63,0.00,CLR,,0.00,WeatherDisplay:10.37,2013-05-25 16:59:00,
2013-05-25 12:04:00,75.3,61.4,30.08,South,181,6.9,6.9,62,0.00,CLR,,0.00,WeatherDisplay:10.37,2013-05-25 17:04:00,
2013-05-25 12:09:00,75.3,61.8,30.08,SSE,162,1.1,1.1,63,0.00,CLR,,0.00,WeatherDisplay:10.37,2013-05-25 17:09:00,
2013-05-25 12:14:00,75.5,62.0,30.08,SW,227,3.5,3.5,63,0.00,CLR,,0.00,WeatherDisplay:10.37,2013-05-25 17:14:00,
2013-05-25 12:19:00,76.1,62.1,30.08,South,170,3.5,3.5,62,0.00,CLR,,0.00,WeatherDisplay:10.37,2013-05-25 17:19:00,
2013-05-25 12:24:00,76.7,62.2,30.07,SSW,213,0.0,0.0,61,0.00,CLR,,0.00,WeatherDisplay:10.37,2013-05-25 17:24:00,
2013-05-25 12:29:00,77.1,62.1,30.07,West,280,6.9,6.9,60,0.00,CLR,,0.00,WeatherDisplay:10.37,2013-05-25 17:29:00,
2013-05-25 12:34:00,76.9,62.0,30.07,SSW,194,3.5,3.5,60,0.00,CLR,,0.00,WeatherDisplay:10.37,2013-05-25 17:34:00,
2013-05-25 12:39:00,76.7,62.2,30.07,SW,220,4.6,4.6,61,0.00,CLR,,0.00,WeatherDisplay:10.37,2013-05-25 17:39:00,
2013-05-25 12:44:00,76.6,62.1,30.06,WNW,297,3.5,3.5,61,0.00,CLR,,0.00,WeatherDisplay:10.37,2013-05-25 17:44:00,
2013-05-25 12:49:00,77.1,62.6,30.06,West,263,4.6,4.6,61,0.00,CLR,,0.00,WeatherDisplay:10.37,2013-05-25 17:49:00,
2013-05-25 12:54:00,77.2,62.2,30.06,SSW,205,3.5,3.5,60,0.00,CLR,,0.00,WeatherDisplay:10.37,2013-05-25 17:54:00,
2013-05-25 12:59:00,77.6,62.6,30.05,West,259,3.5,3.5,60,0.00,CLR,,0.00,WeatherDisplay:10.37,2013-05-25 17:59:00,
2013-05-25 13:04:00,78.1,62.6,30.05,SSE,148,4.6,4.6,59,0.00,CLR,,0.00,WeatherDisplay:10.37,2013-05-25 18:04:00,
2013-05-25 13:09:00,78.3,62.8,30.05,SSE,148,0.0,0.0,59,0.00,CLR,,0.00,WeatherDisplay:10.37,2013-05-25 18:09:00,
2013-05-25 13:14:00,78.9,62.9,30.05,WSW,257,3.5,3.5,58,0.00,CLR,,0.00,WeatherDisplay:10.37,2013-05-25 18:14:00,
2013-05-25 13:19:00,79.2,62.7,30.05,SSE,165,2.3,2.3,57,0.00,CLR,,0.00,WeatherDisplay:10.37,2013-05-25 18:19:00,
2013-05-25 13:24:00,79.4,62.8,30.05,SSE,165,2.3,2.3,57,0.00,CLR,,0.00,WeatherDisplay:10.37,2013-05-25 18:24:00,
2013-05-25 13:29:00,79.6,63.0,30.04,South,173,4.6,4.6,57,0.00,CLR,,0.00,WeatherDisplay:10.37,2013-05-25 18:29:00,
2013-05-25 13:34:00,79.5,62.9,30.04,SSE,157,6.9,6.9,57,0.00,CLR,,0.00,WeatherDisplay:10.37,2013-05-25 18:34:00,
2013-05-25 13:39:00,79.7,63.1,30.04,South,182,10.4,10.4,57,0.00,CLR,,0.00,WeatherDisplay:10.37,2013-05-25 18:39:00,
2013-05-25 13:44:00,80.1,63.5,30.03,West,275,6.9,6.9,57,0.00,CLR,,0.00,WeatherDisplay:10.37,2013-05-25 18:44:00,
2013-05-25 13:49:00,80.3,63.7,30.03,SSE,166,2.3,2.3,57,0.00,CLR,,0.00,WeatherDisplay:10.37,2013-05-25 18:49:00,
2013-05-25 13:54:00,80.6,63.5,30.03,West,278,1.1,1.1,56,0.00,CLR,,0.00,WeatherDisplay:10.37,2013-05-25 18:54:00,
2013-05-25 13:59:00,81.1,63.9,30.03,South,186,6.9,6.9,56,0.00,CLR,,0.00,WeatherDisplay:10.37,2013-05-25 18:59:00,
2013-05-25 14:04:00,80.6,63.5,30.03,South,174,8.1,8.1,56,0.00,CLR,,0.00,WeatherDisplay:10.37,2013-05-25 19:04:00,
2013-05-25 14:09:00,80.6,64.0,30.02,SSW,196,4.6,4.6,57,0.00,CLR,,0.00,WeatherDisplay:10.37,2013-05-25 19:09:00,
2013-05-25 14:14:00,80.8,64.1,30.02,SSW,198,3.5,3.5,57,0.00,CLR,,0.00,WeatherDisplay:10.37,2013-05-25 19:14:00,
2013-05-25 14:19:00,81.6,64.4,30.01,SSW,209,2.3,2.3,56,0.00,CLR,,0.00,WeatherDisplay:10.37,2013-05-25 19:19:00,
2013-05-25 14:24:00,81.8,64.6,30.02,South,175,6.9,6.9,56,0.00,CLR,,0.00,WeatherDisplay:10.37,2013-05-25 19:24:00,
2013-05-25 14:29:00,81.8,64.6,30.02,SSE,162,3.5,3.5,56,0.00,CLR,,0.00,WeatherDisplay:10.37,2013-05-25 19:29:00,
2013-05-25 14:34:00,81.8,64.6,30.01,SSE,166,4.6,4.6,56,0.00,CLR,,0.00,WeatherDisplay:10.37,2013-05-25 19:34:00,
2013-05-25 14:39:00,81.6,64.4,30.01,South,183,5.8,5.8,56,0.00,CLR,,0.00,WeatherDisplay:10.37,2013-05-25 19:39:00,
2013-05-25 14:44:00,81.8,64.6,30.01,SSE,149,6.0,6.0,56,0.00,CLR,,0.00,WeatherDisplay:10.37,2013-05-25 19:44:00,
2013-05-25 14:49:00,82.3,64.5,30.01,SSW,205,9.2,9.2,55,0.00,CLR,,0.00,WeatherDisplay:10.37,2013-05-25 19:49:00,
2013-05-25 14:54:00,82.3,62.9,30.01,SSW,194,10.4,10.4,52,0.00,CLR,,0.00,WeatherDisplay:10.37,2013-05-25 19:54:00,
2013-05-25 14:59:00,82.3,62.9,30.01,SSE,155,7.0,7.0,52,0.00,CLR,,0.00,WeatherDisplay:10.37,2013-05-25 19:59:00,
2013-05-25 15:04:00,82.3,62.4,30.02,East,97,10.4,10.4,51,0.00,CLR,,0.00,WeatherDisplay:10.37,2013-05-25 20:04:00,
2013-05-25 15:09:00,82.4,63.0,30.01,NNW,340,4.0,4.0,52,0.00,CLR,,0.00,WeatherDisplay:10.37,2013-05-25 20:09:00,
2013-05-25 15:14:00,83.3,62.7,30.01,SSW,211,9.2,9.2,50,0.00,CLR,,0.00,WeatherDisplay:10.37,2013-05-25 20:14:00,
2013-05-25 15:19:00,83.4,62.8,30.01,WNW,285,4.0,4.0,50,0.00,CLR,,0.00,WeatherDisplay:10.37,2013-05-25 20:19:00,
2013-05-25 15:24:00,83.5,62.9,30.02,SSE,160,8.1,8.1,50,0.00,CLR,,0.00,WeatherDisplay:10.37,2013-05-25 20:24:00,
2013-05-25 15:29:00,83.6,63.0,30.01,South,176,6.9,6.9,50,0.00,CLR,,0.00,WeatherDisplay:10.37,2013-05-25 20:29:00,
2013-05-25 15:34:00,82.7,62.7,30.00,South,173,9.2,9.2,51,0.00,CLR,,0.00,WeatherDisplay:10.37,2013-05-25 20:34:00,
2013-05-25 15:39:00,82.7,63.3,30.00,SSE,162,3.5,3.5,52,0.00,CLR,,0.00,WeatherDisplay:10.37,2013-05-25 20:39:00,
2013-05-25 15:44:00,83.0,63.6,30.01,South,174,6.9,6.9,52,0.00,CLR,,0.00,WeatherDisplay:10.37,2013-05-25 20:44:00,
2013-05-25 15:49:00,83.1,63.7,30.00,South,169,1.1,2.2,52,0.00,CLR,,0.00,WeatherDisplay:10.37,2013-05-25 20:49:00,
2013-05-25 15:54:00,83.1,63.1,30.00,WSW,240,8.1,8.1,51,0.00,CLR,,0.00,WeatherDisplay:10.37,2013-05-25 20:54:00,
2013-05-25 15:59:00,82.9,63.5,30.00,SW,215,3.5,3.5,52,0.00,CLR,,0.00,WeatherDisplay:10.37,2013-05-25 20:59:00,
2013-05-25 16:04:00,83.1,63.7,30.00,SSE,157,6.9,6.9,52,0.00,,,0.00,WeatherDisplay:10.37,2013-05-25 21:04:00,
2013-05-25 16:09:00,82.9,63.5,30.00,SSE,161,8.1,8.1,52,0.00,,,0.00,WeatherDisplay:10.37,2013-05-25 21:09:00,
2013-05-25 16:14:00,83.0,64.1,30.00,SSE,162,6.9,6.9,53,0.00,,,0.00,WeatherDisplay:10.37,2013-05-25 21:14:00,
2013-05-25 16:19:00,83.0,63.6,29.99,SW,219,10.4,10.4,52,0.00,,,0.00,WeatherDisplay:10.37,2013-05-25 21:19:00,
2013-05-25 16:24:00,83.0,63.6,29.99,SSW,212,9.2,9.2,52,0.00,,,0.00,WeatherDisplay:10.37,2013-05-25 21:24:00,
2013-05-25 16:30:00,82.7,63.3,29.98,South,172,9.2,9.2,52,0.00,,,0.00,WeatherDisplay:10.37,2013-05-25 21:30:00,
2013-05-25 16:35:00,82.7,63.8,29.98,West,266,11.5,11.5,53,0.00,,,0.00,WeatherDisplay:10.37,2013-05-25 21:35:00,
2013-05-25 16:40:00,82.6,63.2,29.98,South,173,8.1,8.1,52,0.00,,,0.00,WeatherDisplay:10.37,2013-05-25 21:40:00,
2013-05-25 16:45:00,82.3,62.9,29.97,South,183,9.2,9.2,52,0.00,,,0.00,WeatherDisplay:10.37,2013-05-25 21:45:00,
2013-05-25 16:50:00,82.4,63.5,29.97,SE,140,6.9,6.9,53,0.00,,,0.00,WeatherDisplay:10.37,2013-05-25 21:50:00,
2013-05-25 16:55:00,82.2,63.9,29.97,ESE,105,6.9,6.9,54,0.00,,,0.00,WeatherDisplay:10.37,2013-05-25 21:55:00,
2013-05-25 17:00:00,82.4,63.5,29.97,South,191,9.2,9.2,53,0.00,,,0.00,WeatherDisplay:10.37,2013-05-25 22:00:00,
2013-05-25 17:16:00,82.6,64.3,29.97,South,181,10.0,10.0,54,0.00,CLR,,0.00,WeatherDisplay:10.37,2013-05-25 22:16:00,
2013-05-25 17:21:00,82.3,64.0,29.96,SW,234,5.8,5.8,54,0.00,,,0.00,WeatherDisplay:10.37,2013-05-25 22:21:00,
2013-05-25 17:26:00,82.6,63.7,29.96,WSW,243,6.9,6.9,53,0.00,,,0.00,WeatherDisplay:10.37,2013-05-25 22:26:00,
2013-05-25 17:31:00,82.7,63.3,29.96,South,171,4.6,4.6,52,0.00,,,0.00,WeatherDisplay:10.37,2013-05-25 22:31:00,
2013-05-25 17:36:00,82.7,62.2,29.96,SSE,148,10.4,10.4,50,0.00,,,0.00,WeatherDisplay:10.37,2013-05-25 22:36:00,
2013-05-25 17:41:00,82.7,61.6,29.95,SSE,148,10.4,10.4,49,0.00,,,0.00,WeatherDisplay:10.37,2013-05-25 22:41:00,
2013-05-25 17:46:00,82.5,62.0,29.95,South,169,6.9,6.9,50,0.00,,,0.00,WeatherDisplay:10.37,2013-05-25 22:46:00,
2013-05-25 17:51:00,82.5,62.0,29.95,SSE,155,10.4,10.4,50,0.00,,,0.00,WeatherDisplay:10.37,2013-05-25 22:51:00,
2013-05-25 17:56:00,82.3,61.8,29.95,South,169,4.6,4.6,50,0.00,CLR,,0.00,WeatherDisplay:10.37,2013-05-25 22:56:00,
2013-05-25 18:01:00,82.3,61.8,29.95,SSE,147,3.5,4.1,50,0.00,,,0.00,WeatherDisplay:10.37,2013-05-25 23:01:00,
2013-05-25 18:06:00,82.3,61.8,29.95,SSE,147,3.5,4.1,50,0.00,,,0.00,WeatherDisplay:10.37,2013-05-25 23:06:00,
2013-05-25 18:11:00,82.3,62.4,29.95,South,187,5.0,5.0,51,0.00,,,0.00,WeatherDisplay:10.37,2013-05-25 23:11:00,
2013-05-25 18:16:00,82.2,62.3,29.95,SSE,153,5.8,5.8,51,0.00,,,0.00,WeatherDisplay:10.37,2013-05-25 23:16:00,
2013-05-25 18:21:00,82.2,62.8,29.95,SSW,211,4.6,4.6,52,0.00,,,0.00,WeatherDisplay:10.37,2013-05-25 23:21:00,
2013-05-25 18:26:00,82.4,63.0,29.95,SE,141,5.8,5.8,52,0.00,,,0.00,WeatherDisplay:10.37,2013-05-25 23:26:00,
2013-05-25 18:31:00,82.3,61.8,29.95,SSE,147,3.5,4.1,50,0.00,,,0.00,WeatherDisplay:10.37,2013-05-25 23:31:00,
2013-05-25 18:36:00,81.9,63.6,29.95,South,178,10.4,10.4,54,0.00,,,0.00,WeatherDisplay:10.37,2013-05-25 23:36:00,
2013-05-25 18:41:00,81.7,63.4,29.95,SE,126,4.0,4.0,54,0.00,,,0.00,WeatherDisplay:10.37,2013-05-25 23:41:00,
2013-05-25 18:46:00,82.3,61.8,29.95,SSE,147,3.5,4.1,50,0.00,,,0.00,WeatherDisplay:10.37,2013-05-25 23:46:00,
2013-05-25 18:51:00,82.3,61.8,29.95,SSE,147,3.5,4.1,50,0.00,,,0.00,WeatherDisplay:10.37,2013-05-25 23:51:00,
2013-05-25 18:56:00,82.3,61.8,29.95,SSE,147,3.5,4.1,50,0.00,,,0.00,WeatherDisplay:10.37,2013-05-25 23:56:00,
2013-05-25 19:01:00,82.3,61.8,29.95,SSE,147,3.5,4.1,50,0.00,,,0.00,WeatherDisplay:10.37,2013-05-26 00:01:00,
2013-05-25 19:06:00,82.3,61.8,29.95,SSE,147,3.5,4.1,50,0.00,,,0.00,WeatherDisplay:10.37,2013-05-26 00:06:00,
2013-05-25 19:11:00,81.3,63.6,29.95,SSE,163,5.8,5.8,55,0.00,,,0.00,WeatherDisplay:10.37,2013-05-26 00:11:00,
2013-05-25 19:16:00,82.3,61.8,29.95,SSE,147,3.5,4.1,50,0.00,,,0.00,WeatherDisplay:10.37,2013-05-26 00:16:00,
2013-05-25 19:21:00,81.4,64.2,29.95,SSE,161,3.5,3.5,56,0.00,,,0.00,WeatherDisplay:10.37,2013-05-26 00:21:00,
2013-05-25 19:26:00,82.3,61.8,29.95,SSE,147,3.5,4.1,50,0.00,,,0.00,WeatherDisplay:10.37,2013-05-26 00:26:00,
2013-05-25 19:31:00,82.3,61.8,29.95,SSE,147,3.5,4.1,50,0.00,,,0.00,WeatherDisplay:10.37,2013-05-26 00:31:00,
2013-05-25 19:36:00,82.3,61.8,29.95,SSE,147,3.5,4.1,50,0.00,,,0.00,WeatherDisplay:10.37,2013-05-26 00:36:00,
2013-05-25 19:41:00,82.3,61.8,29.95,SSE,147,3.5,4.1,50,0.00,,,0.00,WeatherDisplay:10.37,2013-05-26 00:41:00,
2013-05-25 19:46:00,80.9,64.2,29.95,SW,232,3.0,3.0,57,0.00,,,0.00,WeatherDisplay:10.37,2013-05-26 00:46:00,
2013-05-25 19:51:00,80.8,64.1,29.96,SSE,165,2.0,2.0,57,0.00,,,0.00,WeatherDisplay:10.37,2013-05-26 00:51:00,
2013-05-25 19:56:00,82.3,61.8,29.95,SSE,147,3.5,4.1,50,0.00,,,0.00,WeatherDisplay:10.37,2013-05-26 00:56:00,
2013-05-25 20:01:00,80.5,64.4,29.96,South,190,2.3,2.3,58,0.00,,,0.00,WeatherDisplay:10.37,2013-05-26 01:01:00,
2013-05-25 20:06:00,82.3,61.8,29.95,SSE,147,3.5,4.1,50,0.00,,,0.00,WeatherDisplay:10.37,2013-05-26 01:06:00,
2013-05-25 20:11:00,82.3,61.8,29.95,SSE,147,3.5,4.1,50,0.00,,,0.00,WeatherDisplay:10.37,2013-05-26 01:11:00,
2013-05-25 20:16:00,80.1,64.0,29.95,South,184,1.1,1.1,58,0.00,CLR,,0.00,WeatherDisplay:10.37,2013-05-26 01:16:00,
2013-05-25 20:21:00,82.3,61.8,29.95,SSE,147,3.5,4.1,50,0.00,,,0.00,WeatherDisplay:10.37,2013-05-26 01:21:00,
2013-05-25 20:26:00,82.3,61.8,29.95,SSE,147,3.5,4.1,50,0.00,,,0.00,WeatherDisplay:10.37,2013-05-26 01:26:00,
2013-05-25 20:31:00,82.3,61.8,29.95,SSE,147,3.5,4.1,50,0.00,,,0.00,WeatherDisplay:10.37,2013-05-26 01:31:00,
2013-05-25 20:36:00,79.4,63.8,29.94,SW,220,0.0,0.0,59,0.00,CLR,,0.00,WeatherDisplay:10.37,2013-05-26 01:36:00,
2013-05-25 20:41:00,82.3,61.8,29.95,SSE,147,3.5,4.1,50,0.00,,,0.00,WeatherDisplay:10.37,2013-05-26 01:41:00,
2013-05-25 20:46:00,79.1,64.0,29.95,SSW,212,1.1,0.0,60,0.00,CLR,,0.00,WeatherDisplay:10.37,2013-05-26 01:46:00,
2013-05-25 20:51:00,78.9,63.8,29.95,SW,222,1.1,1.1,60,0.00,CLR,,0.00,WeatherDisplay:10.37,2013-05-26 01:51:00,
2013-05-25 20:56:00,82.3,61.8,29.95,SSE,147,3.5,4.1,50,0.00,,,0.00,WeatherDisplay:10.37,2013-05-26 01:56:00,
2013-05-25 21:01:00,82.3,61.8,29.95,SSE,147,3.5,4.1,50,0.00,,,0.00,WeatherDisplay:10.37,2013-05-26 02:01:00,
2013-05-25 21:06:00,78.4,64.3,29.95,SE,140,1.1,1.1,62,0.00,,,0.00,WeatherDisplay:10.37,2013-05-26 02:06:00,
2013-05-25 21:11:00,82.3,61.8,29.95,SSE,147,3.5,4.1,50,0.00,,,0.00,WeatherDisplay:10.37,2013-05-26 02:11:00,
2013-05-25 21:16:00,78.1,64.5,29.96,SE,146,0.0,0.0,63,0.00,,,0.00,WeatherDisplay:10.37,2013-05-26 02:16:00,
2013-05-25 21:21:00,82.3,61.8,29.95,SSE,147,3.5,4.1,50,0.00,,,0.00,WeatherDisplay:10.37,2013-05-26 02:21:00,
2013-05-25 21:26:00,77.8,64.6,29.97,South,177,0.0,0.0,64,0.00,,,0.00,WeatherDisplay:10.37,2013-05-26 02:26:00,
2013-05-25 21:31:00,77.7,65.0,29.97,South,177,0.0,0.0,65,0.00,,,0.00,WeatherDisplay:10.37,2013-05-26 02:31:00,
2013-05-25 21:36:00,77.6,64.9,29.98,South,177,0.0,0.0,65,0.00,,,0.00,WeatherDisplay:10.37,2013-05-26 02:36:00,
2013-05-25 21:41:00,77.6,64.9,29.98,South,177,0.0,0.0,65,0.00,,,0.00,WeatherDisplay:10.37,2013-05-26 02:41:00,
2013-05-25 21:46:00,77.5,64.8,29.99,South,177,0.0,0.0,65,0.00,,,0.00,WeatherDisplay:10.37,2013-05-26 02:46:00,
2013-05-25 21:51:00,82.3,61.8,29.95,SSE,147,3.5,4.1,50,0.00,,,0.00,WeatherDisplay:10.37,2013-05-26 02:51:00,
2013-05-25 21:56:00,77.2,65.0,29.99,South,177,0.0,0.0,66,0.00,,,0.00,WeatherDisplay:10.37,2013-05-26 02:56:00,
2013-05-25 22:01:00,82.3,61.8,29.95,SSE,147,3.5,4.1,50,0.00,,,0.00,WeatherDisplay:10.37,2013-05-26 03:01:00,
2013-05-25 22:06:00,82.3,61.8,29.95,SSE,147,3.5,4.1,50,0.00,,,0.00,WeatherDisplay:10.37,2013-05-26 03:06:00,
2013-05-25 22:11:00,82.3,61.8,29.95,SSE,147,3.5,4.1,50,0.00,,,0.00,WeatherDisplay:10.37,2013-05-26 03:11:00,
2013-05-25 22:16:00,76.5,65.1,29.99,South,177,0.0,0.0,68,0.00,,,0.00,WeatherDisplay:10.37,2013-05-26 03:16:00,
2013-05-25 22:21:00,76.4,65.1,29.99,South,177,0.0,0.0,68,0.00,,,0.00,WeatherDisplay:10.37,2013-05-26 03:21:00,
2013-05-25 22:26:00,76.5,65.1,29.99,South,177,0.0,0.0,68,0.00,,,0.00,WeatherDisplay:10.37,2013-05-26 03:26:00,
2013-05-25 22:31:00,76.5,65.1,30.00,South,177,0.0,0.0,68,0.00,,,0.00,WeatherDisplay:10.37,2013-05-26 03:31:00,
2013-05-25 22:36:00,76.5,65.1,29.99,South,177,0.0,0.0,68,0.00,,,0.00,WeatherDisplay:10.37,2013-05-26 03:36:00,
2013-05-25 22:41:00,76.4,65.5,30.00,South,177,0.0,0.0,69,0.00,,,0.00,WeatherDisplay:10.37,2013-05-26 03:41:00,
2013-05-25 22:46:00,76.4,65.5,30.00,South,177,0.0,0.0,69,0.00,,,0.00,WeatherDisplay:10.37,2013-05-26 03:46:00,
2013-05-25 22:51:00,76.5,65.1,29.99,South,177,0.0,0.0,68,0.00,,,0.00,WeatherDisplay:10.37,2013-05-26 03:51:00,
2013-05-25 22:56:00,76.1,65.2,30.00,South,177,0.0,0.0,69,0.00,,,0.00,WeatherDisplay:10.37,2013-05-26 03:56:00,
2013-05-25 23:01:00,76.5,65.1,29.99,South,177,0.0,0.0,68,0.00,,,0.00,WeatherDisplay:10.37,2013-05-26 04:01:00,
2013-05-25 23:06:00,75.7,65.2,30.00,South,177,0.0,0.0,70,0.00,,,0.00,WeatherDisplay:10.37,2013-05-26 04:06:00,
2013-05-25 23:11:00,76.5,65.1,29.99,South,177,0.0,0.0,68,0.00,,,0.00,WeatherDisplay:10.37,2013-05-26 04:11:00,
2013-05-25 23:16:00,76.5,65.1,29.99,South,177,0.0,0.0,68,0.00,,,0.00,WeatherDisplay:10.37,2013-05-26 04:16:00,
2013-05-25 23:21:00,76.5,65.1,29.99,South,177,0.0,0.0,68,0.00,,,0.00,WeatherDisplay:10.37,2013-05-26 04:21:00,
2013-05-25 23:26:00,76.5,65.1,29.99,South,177,0.0,0.0,68,0.00,,,0.00,WeatherDisplay:10.37,2013-05-26 04:26:00,
2013-05-25 23:31:00,75.4,65.3,29.99,South,177,1.1,0.0,71,0.00,,,0.00,WeatherDisplay:10.37,2013-05-26 04:31:00,
2013-05-25 23:36:00,76.5,65.1,29.99,South,177,0.0,0.0,68,0.00,,,0.00,WeatherDisplay:10.37,2013-05-26 04:36:00,
2013-05-25 23:41:00,75.1,65.1,29.99,South,177,0.0,0.0,71,0.00,,,0.00,WeatherDisplay:10.37,2013-05-26 04:41:00,
2013-05-25 23:46:00,76.5,65.1,29.99,South,177,0.0,0.0,68,0.00,,,0.00,WeatherDisplay:10.37,2013-05-26 04:46:00,
2013-05-25 23:51:00,76.5,65.1,29.99,South,177,0.0,0.0,68,0.00,,,0.00,WeatherDisplay:10.37,2013-05-26 04:51:00,
2013-05-25 23:56:00,74.7,64.7,29.99,South,177,0.0,0.0,71,0.00,,,0.00,WeatherDisplay:10.37,2013-05-26 04:56:00,